createdAt,value
2018-09-08T00:00:03.473Z,8.20
2018-09-08T00:02:31.958Z,8.20
2018-09-08T00:05:00.360Z,8.20
2018-09-08T00:07:34.062Z,8.10
2018-09-08T00:10:02.390Z,8.10
2018-09-08T00:12:30.706Z,8.00
2018-09-08T00:15:04.232Z,8.00
2018-09-08T00:17:37.885Z,8.00
2018-09-08T00:20:11.715Z,7.90
2018-09-08T00:22:45.445Z,7.80
2018-09-08T00:25:19.137Z,7.80
2018-09-08T00:27:54.982Z,7.80
2018-09-08T00:30:23.372Z,7.60
2018-09-08T00:32:51.753Z,7.60
2018-09-08T00:35:20.074Z,7.60
2018-09-08T00:37:48.489Z,7.60
2018-09-08T00:40:16.805Z,7.50
2018-09-08T00:42:47.382Z,7.50
2018-09-08T00:45:15.760Z,7.40
2018-09-08T00:47:44.130Z,7.30
2018-09-08T00:50:12.499Z,7.30
2018-09-08T00:52:40.873Z,7.30
2018-09-08T00:55:09.416Z,7.20
2018-09-08T00:57:37.748Z,7.20
2018-09-08T01:00:06.096Z,7.20
2018-09-08T01:02:34.426Z,7.10
2018-09-08T01:05:02.738Z,7.10
2018-09-08T01:07:31.741Z,7.00
2018-09-08T01:10:01.967Z,7.00
2018-09-08T01:12:30.974Z,6.90
2018-09-08T01:14:59.975Z,6.90
2018-09-08T01:17:28.514Z,6.90
2018-09-08T01:19:56.935Z,6.80
2018-09-08T01:22:25.485Z,6.80
2018-09-08T01:24:54.108Z,6.70
2018-09-08T01:27:22.527Z,6.70
2018-09-08T01:29:50.859Z,6.60
2018-09-08T01:32:19.242Z,6.60
2018-09-08T01:34:47.606Z,6.60
2018-09-08T01:37:15.973Z,6.40
2018-09-08T01:39:44.330Z,6.50
2018-09-08T01:42:12.665Z,6.50
2018-09-08T01:44:41.064Z,6.50
2018-09-08T01:47:09.405Z,6.50
2018-09-08T01:49:37.750Z,6.40
2018-09-08T01:52:06.146Z,6.40
2018-09-08T01:54:34.506Z,6.40
2018-09-08T01:57:02.950Z,6.30
2018-09-08T01:59:31.285Z,6.30
2018-09-08T02:01:59.623Z,6.30
2018-09-08T02:04:27.942Z,6.20
2018-09-08T02:06:56.357Z,6.20
2018-09-08T02:09:24.875Z,6.20
2018-09-08T02:11:53.204Z,6.10
2018-09-08T02:14:21.545Z,6.00
2018-09-08T02:16:49.847Z,6.00
2018-09-08T02:19:18.193Z,5.90
2018-09-08T02:21:46.525Z,5.90
2018-09-08T02:24:14.815Z,5.80
2018-09-08T02:26:43.167Z,5.90
2018-09-08T02:29:11.481Z,5.90
2018-09-08T02:31:39.791Z,5.80
2018-09-08T02:34:08.143Z,5.80
2018-09-08T02:36:36.474Z,5.70
2018-09-08T02:39:05.958Z,5.60
2018-09-08T02:41:34.290Z,5.40
2018-09-08T02:44:02.593Z,5.60
2018-09-08T02:46:30.973Z,5.50
2018-09-08T02:48:59.292Z,5.50
2018-09-08T02:51:26.613Z,5.30
2018-09-08T02:53:53.862Z,5.40
2018-09-08T02:56:21.119Z,5.40
2018-09-08T02:58:48.385Z,5.40
2018-09-08T03:01:15.642Z,5.30
2018-09-08T03:03:42.900Z,5.30
2018-09-08T03:06:10.194Z,5.30
2018-09-08T03:08:37.447Z,5.20
2018-09-08T03:11:04.717Z,5.20
2018-09-08T03:13:31.974Z,5.10
2018-09-08T03:15:59.242Z,5.10
2018-09-08T03:18:26.499Z,5.20
2018-09-08T03:20:53.807Z,5.10
2018-09-08T03:23:21.086Z,5.10
2018-09-08T03:25:48.381Z,5.00
2018-09-08T03:28:15.647Z,5.10
2018-09-08T03:30:42.897Z,5.00
2018-09-08T03:33:10.190Z,5.10
2018-09-08T03:35:37.471Z,5.10
2018-09-08T03:38:04.961Z,5.10
2018-09-08T03:40:32.279Z,5.20
2018-09-08T03:42:59.527Z,5.20
2018-09-08T03:45:26.804Z,5.10
2018-09-08T03:47:54.088Z,5.00
2018-09-08T03:50:21.358Z,5.00
2018-09-08T03:52:48.638Z,4.90
2018-09-08T03:55:15.879Z,5.00
2018-09-08T03:57:43.139Z,4.90
2018-09-08T04:00:10.398Z,4.90
2018-09-08T04:02:38.752Z,4.90
2018-09-08T04:05:07.103Z,4.80
2018-09-08T04:07:35.545Z,4.80
2018-09-08T04:10:03.986Z,4.70
2018-09-08T04:12:32.634Z,4.70
2018-09-08T04:15:00.947Z,4.70
2018-09-08T04:17:29.358Z,4.70
2018-09-08T04:19:57.674Z,4.70
2018-09-08T04:22:30.479Z,4.70
2018-09-08T04:24:59.000Z,4.60
2018-09-08T04:27:27.313Z,4.50
2018-09-08T04:29:55.802Z,4.50
2018-09-08T04:32:24.178Z,4.40
2018-09-08T04:34:52.620Z,4.40
2018-09-08T04:37:21.009Z,4.30
2018-09-08T04:39:49.333Z,4.30
2018-09-08T04:42:17.624Z,4.30
2018-09-08T04:44:46.934Z,4.30
2018-09-08T04:47:15.545Z,4.40
2018-09-08T04:49:43.877Z,4.50
2018-09-08T04:52:12.232Z,4.40
2018-09-08T04:54:40.579Z,4.40
2018-09-08T04:57:08.917Z,4.30
2018-09-08T04:59:37.328Z,4.30
2018-09-08T05:02:05.812Z,4.30
2018-09-08T05:04:34.208Z,4.30
2018-09-08T05:07:02.533Z,4.30
2018-09-08T05:09:30.862Z,4.30
2018-09-08T05:11:59.216Z,4.30
2018-09-08T05:14:27.753Z,4.20
2018-09-08T05:16:56.267Z,4.30
2018-09-08T05:19:24.593Z,4.30
2018-09-08T05:21:52.957Z,4.40
2018-09-08T05:24:21.301Z,4.30
2018-09-08T05:26:49.629Z,4.30
2018-09-08T05:29:17.939Z,4.20
2018-09-08T05:31:47.055Z,4.30
2018-09-08T05:34:15.565Z,4.40
2018-09-08T05:36:44.071Z,4.40
2018-09-08T05:39:12.440Z,4.40
2018-09-08T05:41:40.804Z,4.50
2018-09-08T05:44:09.145Z,4.70
2018-09-08T05:46:37.493Z,4.60
2018-09-08T05:49:05.797Z,4.80
2018-09-08T05:51:34.144Z,4.80
2018-09-08T05:54:02.514Z,5.00
2018-09-08T05:56:30.837Z,5.10
2018-09-08T05:58:59.136Z,5.10
2018-09-08T06:01:27.436Z,5.20
2018-09-08T06:03:56.683Z,5.20
2018-09-08T06:06:25.057Z,5.30
2018-09-08T06:08:53.389Z,5.40
2018-09-08T06:11:21.714Z,5.70
2018-09-08T06:13:50.053Z,5.70
2018-09-08T06:16:18.413Z,6.00
2018-09-08T06:18:46.847Z,6.10
2018-09-08T06:21:15.193Z,6.20
2018-09-08T06:23:43.559Z,6.30
2018-09-08T06:26:11.863Z,6.30
2018-09-08T06:28:40.354Z,6.40
2018-09-08T06:31:08.516Z,6.60
2018-09-08T06:33:37.460Z,6.70
2018-09-08T06:36:06.815Z,7.20
2018-09-08T06:38:35.166Z,8.00
2018-09-08T06:43:28.141Z,9.40
2018-09-08T06:45:57.099Z,11.50
2018-09-08T06:48:25.491Z,12.30
2018-09-08T06:50:53.836Z,13.00
2018-09-08T06:53:22.191Z,14.20
2018-09-08T06:55:50.612Z,15.20
2018-09-08T06:58:18.992Z,16.00
2018-09-08T07:00:47.378Z,15.70
2018-09-08T07:03:15.787Z,15.80
2018-09-08T07:05:44.096Z,15.60
2018-09-08T07:08:12.475Z,15.30
2018-09-08T07:10:40.920Z,15.70
2018-09-08T07:13:09.328Z,16.10
2018-09-08T07:15:37.686Z,16.50
2018-09-08T07:18:06.081Z,17.00
2018-09-08T07:20:34.487Z,17.50
2018-09-08T07:23:02.908Z,17.60
2018-09-08T07:25:31.350Z,17.40
2018-09-08T07:27:59.748Z,17.10
2018-09-08T07:30:28.976Z,16.70
2018-09-08T07:32:58.505Z,16.80
2018-09-08T07:35:27.118Z,16.60
2018-09-08T07:37:55.642Z,17.10
2018-09-08T07:40:23.993Z,18.10
2018-09-08T07:42:52.376Z,18.70
2018-09-08T07:45:20.765Z,18.40
2018-09-08T07:47:49.193Z,18.60
2018-09-08T07:50:17.525Z,18.80
2018-09-08T07:52:45.952Z,18.80
2018-09-08T07:55:14.355Z,18.60
2018-09-08T07:57:42.802Z,18.70
2018-09-08T08:00:11.179Z,18.60
2018-09-08T08:02:39.552Z,18.70
2018-09-08T08:05:08.458Z,18.30
2018-09-08T08:07:36.782Z,17.90
2018-09-08T08:10:05.173Z,17.10
2018-09-08T08:12:33.626Z,17.00
2018-09-08T08:15:02.105Z,16.80
2018-09-08T08:17:30.525Z,16.90
2018-09-08T08:19:58.919Z,16.70
2018-09-08T08:22:27.352Z,16.30
2018-09-08T08:24:56.107Z,16.10
2018-09-08T08:27:24.507Z,16.10
2018-09-08T08:29:52.875Z,16.30
2018-09-08T08:32:21.249Z,16.70
2018-09-08T08:34:49.788Z,16.60
2018-09-08T08:37:18.252Z,16.60
2018-09-08T08:39:46.558Z,16.60
2018-09-08T08:42:14.912Z,16.70
2018-09-08T08:44:43.270Z,16.50
2018-09-08T08:47:11.688Z,16.30
2018-09-08T08:49:40.108Z,16.30
2018-09-08T08:52:19.740Z,16.00
2018-09-08T08:54:49.986Z,16.00
2018-09-08T08:57:18.388Z,16.40
2018-09-08T08:59:46.921Z,16.30
2018-09-08T09:02:15.330Z,16.20
2018-09-08T09:04:43.809Z,16.20
2018-09-08T09:07:13.572Z,16.30
2018-09-08T09:09:42.685Z,16.60
2018-09-08T09:12:11.676Z,16.80
2018-09-08T09:14:40.592Z,16.90
2018-09-08T09:17:08.738Z,17.00
2018-09-08T09:19:48.345Z,16.90
2018-09-08T09:22:28.818Z,16.90
2018-09-08T09:25:00.422Z,17.10
2018-09-08T09:27:29.533Z,17.40
2018-09-08T09:29:58.251Z,17.40
2018-09-08T09:32:26.703Z,17.40
2018-09-08T09:34:55.686Z,17.20
2018-09-08T09:37:24.206Z,17.50
2018-09-08T09:39:53.234Z,17.80
2018-09-08T09:42:21.667Z,18.10
2018-09-08T09:44:50.028Z,18.20
2018-09-08T09:47:18.363Z,18.10
2018-09-08T09:49:46.712Z,18.00
2018-09-08T09:52:15.827Z,18.20
2018-09-08T09:54:45.719Z,18.30
2018-09-08T09:57:14.138Z,18.00
2018-09-08T09:59:42.505Z,17.90
2018-09-08T10:02:44.431Z,17.80
2018-09-08T10:05:23.266Z,18.00
2018-09-08T10:07:52.158Z,18.00
2018-09-08T10:10:24.877Z,18.20
2018-09-08T10:12:53.253Z,18.20
2018-09-08T10:15:21.566Z,18.40
2018-09-08T10:17:49.942Z,18.30
2018-09-08T10:20:19.752Z,18.60
2018-09-08T10:22:48.132Z,18.50
2018-09-08T10:25:17.645Z,18.20
2018-09-08T10:27:46.647Z,18.20
2018-09-08T10:30:15.459Z,18.40
2018-09-08T10:32:44.702Z,18.50
2018-09-08T10:35:13.402Z,18.10
2018-09-08T10:37:41.801Z,18.20
2018-09-08T10:40:11.092Z,18.60
2018-09-08T10:42:39.622Z,18.70
2018-09-08T10:45:08.540Z,19.00
2018-09-08T10:47:36.972Z,19.50
2018-09-08T10:50:05.610Z,20.00
2018-09-08T10:52:39.289Z,19.60
2018-09-08T10:55:07.851Z,19.50
2018-09-08T10:57:36.254Z,19.20
2018-09-08T11:00:05.091Z,19.40
2018-09-08T11:02:33.627Z,19.80
2018-09-08T11:05:02.552Z,20.20
2018-09-08T11:07:32.368Z,20.50
2018-09-08T11:10:00.783Z,20.50
2018-09-08T11:12:29.388Z,20.30
2018-09-08T11:14:57.877Z,20.20
2018-09-08T11:17:26.243Z,19.90
2018-09-08T11:19:55.033Z,19.80
2018-09-08T11:22:23.630Z,19.60
2018-09-08T11:24:52.042Z,19.30
2018-09-08T11:27:20.476Z,19.60
2018-09-08T11:29:48.811Z,20.20
2018-09-08T11:32:17.233Z,20.00
2018-09-08T11:34:45.593Z,20.20
2018-09-08T11:37:14.018Z,20.00
2018-09-08T11:39:42.398Z,19.90
2018-09-08T11:42:10.730Z,19.90
2018-09-08T11:44:39.206Z,20.20
2018-09-08T11:47:07.691Z,20.20
2018-09-08T11:49:36.183Z,19.90
2018-09-08T11:52:04.605Z,20.20
2018-09-08T11:54:32.971Z,20.40
2018-09-08T11:57:01.345Z,20.50
2018-09-08T11:59:29.862Z,20.50
2018-09-08T12:01:58.242Z,20.50
2018-09-08T12:04:26.603Z,20.50
2018-09-08T12:06:55.197Z,20.30
2018-09-08T12:09:23.759Z,20.30
2018-09-08T12:11:52.152Z,20.40
2018-09-08T12:14:20.653Z,20.50
2018-09-08T12:16:49.004Z,20.80
2018-09-08T12:19:17.406Z,21.00
2018-09-08T12:21:45.888Z,21.00
2018-09-08T12:24:14.421Z,20.90
2018-09-08T12:26:42.814Z,21.00
2018-09-08T12:29:11.124Z,21.00
2018-09-08T12:31:39.515Z,20.90
2018-09-08T12:34:07.973Z,20.70
2018-09-08T12:36:36.353Z,20.90
2018-09-08T12:39:06.797Z,20.90
2018-09-08T12:41:35.222Z,20.80
2018-09-08T12:44:03.637Z,20.70
2018-09-08T12:46:32.071Z,20.80
2018-09-08T12:49:00.444Z,21.10
2018-09-08T12:51:28.875Z,21.60
2018-09-08T12:53:57.318Z,22.00
2018-09-08T12:56:25.978Z,21.90
2018-09-08T12:58:54.438Z,21.60
2018-09-08T13:01:23.116Z,21.90
2018-09-08T13:03:51.517Z,21.80
2018-09-08T13:06:19.865Z,22.30
2018-09-08T13:08:48.346Z,23.20
2018-09-08T13:11:16.723Z,23.50
2018-09-08T13:13:45.116Z,23.90
2018-09-08T13:16:13.541Z,24.30
2018-09-08T13:18:41.911Z,24.60
2018-09-08T13:21:10.387Z,24.50
2018-09-08T13:23:38.807Z,24.50
2018-09-08T13:26:07.211Z,25.10
2018-09-08T13:28:35.657Z,25.90
2018-09-08T13:31:04.117Z,24.80
2018-09-08T13:33:32.529Z,25.00
2018-09-08T13:36:00.928Z,24.80
2018-09-08T13:38:29.337Z,24.90
2018-09-08T13:40:57.918Z,25.20
2018-09-08T13:43:26.922Z,25.40
2018-09-08T13:45:56.131Z,25.80
2018-09-08T13:48:25.057Z,25.60
2018-09-08T13:51:02.291Z,26.00
2018-09-08T13:53:30.911Z,24.10
2018-09-08T13:55:59.375Z,25.80
2018-09-08T13:58:27.812Z,26.00
2018-09-08T14:00:56.305Z,25.80
2018-09-08T14:03:24.694Z,25.60
2018-09-08T14:05:53.280Z,25.60
2018-09-08T14:08:21.737Z,25.00
2018-09-08T14:10:50.182Z,24.40
2018-09-08T14:13:18.655Z,24.40
2018-09-08T14:15:47.060Z,24.00
2018-09-08T14:18:20.934Z,24.20
2018-09-08T14:20:49.529Z,24.90
2018-09-08T14:23:18.018Z,25.20
2018-09-08T14:25:46.429Z,25.20
2018-09-08T14:28:14.857Z,24.70
2018-09-08T14:30:43.976Z,25.00
2018-09-08T14:33:13.604Z,25.90
2018-09-08T14:35:42.103Z,26.90
2018-09-08T14:38:10.466Z,27.00
2018-09-08T14:40:40.516Z,26.90
2018-09-08T14:43:08.967Z,25.70
2018-09-08T14:45:37.442Z,25.70
2018-09-08T14:48:07.221Z,25.50
2018-09-08T14:50:36.478Z,26.10
2018-09-08T14:53:05.196Z,25.90
2018-09-08T14:55:34.578Z,25.40
2018-09-08T14:58:02.989Z,25.50
2018-09-08T15:00:31.375Z,25.10
2018-09-08T15:02:59.835Z,25.50
2018-09-08T15:05:28.183Z,26.40
2018-09-08T15:07:56.726Z,26.40
2018-09-08T15:10:25.270Z,25.80
2018-09-08T15:12:54.043Z,25.20
2018-09-08T15:15:22.464Z,25.10
2018-09-08T15:17:50.871Z,25.30
2018-09-08T15:20:19.243Z,25.30
2018-09-08T15:22:47.656Z,25.10
2018-09-08T15:25:16.048Z,25.20
2018-09-08T15:27:44.460Z,24.70
2018-09-08T15:30:12.795Z,23.80
2018-09-08T15:32:41.404Z,23.30
2018-09-08T15:35:09.694Z,24.20
2018-09-08T15:37:38.085Z,23.60
2018-09-08T15:40:06.475Z,23.90
2018-09-08T15:42:34.825Z,24.90
2018-09-08T15:45:03.157Z,25.50
2018-09-08T15:47:31.555Z,24.50
2018-09-08T15:49:59.911Z,23.10
2018-09-08T15:52:28.293Z,22.20
2018-09-08T15:54:56.929Z,21.60
2018-09-08T15:57:25.356Z,21.00
2018-09-08T15:59:53.855Z,20.70
2018-09-08T16:02:22.248Z,20.50
2018-09-08T16:04:50.663Z,20.20
2018-09-08T16:07:19.032Z,20.00
2018-09-08T16:09:47.441Z,20.00
2018-09-08T16:12:15.825Z,20.00
2018-09-08T16:14:44.201Z,20.00
2018-09-08T16:17:12.546Z,20.00
2018-09-08T16:19:41.015Z,19.80
2018-09-08T16:22:09.350Z,19.80
2018-09-08T16:24:37.839Z,19.70
2018-09-08T16:27:06.343Z,19.50
2018-09-08T16:29:34.757Z,19.40
2018-09-08T16:32:03.100Z,19.30
2018-09-08T16:34:31.445Z,19.30
2018-09-08T16:36:59.789Z,19.40
2018-09-08T16:39:28.172Z,19.70
2018-09-08T16:41:56.907Z,20.50
2018-09-08T16:44:25.332Z,20.90
2018-09-08T16:46:53.702Z,20.80
2018-09-08T16:49:22.099Z,20.60
2018-09-08T16:51:50.469Z,20.70
2018-09-08T16:54:18.893Z,20.80
2018-09-08T16:56:47.298Z,21.00
2018-09-08T16:59:15.729Z,21.10
2018-09-08T17:01:44.176Z,21.00
2018-09-08T17:04:12.556Z,20.50
2018-09-08T17:06:40.941Z,19.90
2018-09-08T17:09:09.389Z,19.60
2018-09-08T17:11:38.121Z,19.30
2018-09-08T17:14:06.572Z,19.20
2018-09-08T17:16:35.066Z,19.10
2018-09-08T17:19:03.417Z,19.00
2018-09-08T17:21:31.801Z,18.80
2018-09-08T17:24:00.133Z,18.70
2018-09-08T17:26:28.640Z,18.60
2018-09-08T17:28:57.032Z,18.40
2018-09-08T17:31:25.419Z,18.20
2018-09-08T17:33:53.792Z,18.10
2018-09-08T17:36:22.185Z,18.00
2018-09-08T17:38:50.572Z,18.00
2018-09-08T17:41:19.191Z,17.90
2018-09-08T17:43:47.565Z,17.80
2018-09-08T17:46:15.928Z,17.80
2018-09-08T17:48:44.286Z,17.70
2018-09-08T17:51:12.683Z,17.70
2018-09-08T17:53:41.119Z,17.60
2018-09-08T17:56:09.743Z,17.60
2018-09-08T17:58:39.099Z,17.60
2018-09-08T18:01:07.555Z,17.50
2018-09-08T18:03:35.993Z,17.50
2018-09-08T18:06:04.532Z,17.50
2018-09-08T18:08:33.184Z,17.40
2018-09-08T18:11:01.815Z,17.40
2018-09-08T18:13:30.888Z,17.40
2018-09-08T18:15:59.274Z,17.30
2018-09-08T18:18:27.722Z,17.30
2018-09-08T18:20:56.274Z,17.30
2018-09-08T18:23:24.676Z,17.30
2018-09-08T18:25:53.027Z,17.10
2018-09-08T18:28:21.544Z,17.10
2018-09-08T18:30:49.972Z,17.10
2018-09-08T18:33:18.367Z,17.10
2018-09-08T18:35:47.213Z,17.00
2018-09-08T18:38:15.883Z,17.00
2018-09-08T18:40:44.327Z,17.00
2018-09-08T18:43:12.707Z,16.90
2018-09-08T18:45:41.100Z,16.80
2018-09-08T18:48:09.482Z,16.80
2018-09-08T18:50:38.003Z,16.70
2018-09-08T18:53:06.930Z,16.60
2018-09-08T18:55:35.284Z,16.50
2018-09-08T18:58:03.741Z,16.40
2018-09-08T19:00:32.522Z,16.40
2018-09-08T19:03:00.997Z,16.40
2018-09-08T19:05:30.163Z,16.40
2018-09-08T19:07:58.949Z,16.30
2018-09-08T19:10:27.364Z,16.20
2018-09-08T19:12:56.670Z,16.10
2018-09-08T19:15:25.308Z,16.10
2018-09-08T19:17:53.689Z,16.20
2018-09-08T19:20:27.403Z,16.20
2018-09-08T19:22:55.983Z,16.10
2018-09-08T19:25:25.250Z,16.20
2018-09-08T19:27:54.375Z,16.20
2018-09-08T19:30:22.814Z,16.20
2018-09-08T19:32:51.615Z,16.10
2018-09-08T19:35:25.583Z,16.10
2018-09-08T19:37:54.148Z,16.10
2018-09-08T19:40:27.898Z,15.90
2018-09-08T19:42:57.681Z,15.80
2018-09-08T19:45:26.069Z,15.60
2018-09-08T19:47:59.673Z,15.30
2018-09-08T19:50:28.241Z,15.10
2018-09-08T19:53:01.985Z,14.90
2018-09-08T19:55:30.365Z,14.60
2018-09-08T19:58:04.278Z,14.50
2018-09-08T20:00:32.776Z,14.40
2018-09-08T20:03:01.214Z,14.40
2018-09-08T20:05:29.645Z,14.30
2018-09-08T20:07:58.975Z,14.20
2018-09-08T20:10:27.519Z,14.20
2018-09-08T20:12:56.195Z,14.00
2018-09-08T20:15:26.154Z,13.90
2018-09-08T20:17:54.843Z,13.90
2018-09-08T20:20:23.245Z,13.90
2018-09-08T20:22:51.874Z,13.90
2018-09-08T20:25:20.306Z,13.80
2018-09-08T20:27:49.012Z,13.70
2018-09-08T20:30:17.929Z,13.60
2018-09-08T20:32:46.427Z,13.70
2018-09-08T20:35:15.038Z,13.70
2018-09-08T20:37:43.472Z,13.60
2018-09-08T20:40:11.823Z,13.50
2018-09-08T20:42:40.305Z,13.50
2018-09-08T20:45:08.837Z,13.50
2018-09-08T20:47:37.287Z,13.40
2018-09-08T20:50:05.739Z,13.50
2018-09-08T20:52:37.131Z,13.30
2018-09-08T20:55:05.576Z,13.30
2018-09-08T20:57:33.963Z,13.20
2018-09-08T21:00:02.369Z,13.10
2018-09-08T21:02:31.561Z,13.10
2018-09-08T21:05:00.005Z,13.00
2018-09-08T21:07:28.416Z,12.80
2018-09-08T21:09:56.829Z,12.80
2018-09-08T21:12:25.192Z,12.70
2018-09-08T21:14:53.712Z,12.70
2018-09-08T21:17:22.075Z,12.60
2018-09-08T21:19:50.552Z,12.60
2018-09-08T21:22:19.010Z,12.60
2018-09-08T21:24:47.403Z,12.50
2018-09-08T21:27:16.279Z,12.50
2018-09-08T21:29:44.930Z,12.50
2018-09-08T21:32:13.438Z,12.50
2018-09-08T21:34:41.890Z,12.30
2018-09-08T21:37:10.354Z,12.30
2018-09-08T21:39:38.753Z,12.20
2018-09-08T21:42:07.165Z,12.10
2018-09-08T21:44:35.537Z,12.00
2018-09-08T21:47:05.912Z,11.90
2018-09-08T21:49:32.762Z,11.90
2018-09-08T21:52:01.164Z,11.80
2018-09-08T21:54:29.669Z,11.80
2018-09-08T21:56:58.305Z,11.70
2018-09-08T21:59:26.700Z,11.70
2018-09-08T22:01:55.221Z,11.70
2018-09-08T22:04:23.770Z,11.70
2018-09-08T22:06:52.148Z,11.80
2018-09-08T22:09:20.540Z,11.80
2018-09-08T22:11:48.948Z,11.70
2018-09-08T22:14:17.396Z,11.70
2018-09-08T22:16:45.804Z,11.70
2018-09-08T22:19:14.152Z,11.70
2018-09-08T22:21:42.615Z,11.70
2018-09-08T22:24:10.991Z,11.60
2018-09-08T22:26:39.314Z,11.70
2018-09-08T22:29:07.777Z,11.70
2018-09-08T22:31:36.205Z,11.50
2018-09-08T22:34:04.757Z,11.50
2018-09-08T22:36:33.112Z,11.40
2018-09-08T22:39:01.444Z,11.30
2018-09-08T22:41:29.798Z,11.40
2018-09-08T22:43:58.196Z,11.20
2018-09-08T22:46:26.590Z,11.30
2018-09-08T22:48:54.988Z,11.30
2018-09-08T22:51:23.419Z,11.40
2018-09-08T22:53:51.713Z,11.50
2018-09-08T22:56:20.082Z,11.50
2018-09-08T22:58:48.466Z,11.50
2018-09-08T23:01:16.817Z,11.50
2018-09-08T23:03:45.142Z,11.50
2018-09-08T23:06:13.622Z,11.50
2018-09-08T23:08:41.995Z,11.50
2018-09-08T23:11:10.349Z,11.40
2018-09-08T23:13:38.920Z,11.40
2018-09-08T23:16:07.382Z,11.30
2018-09-08T23:18:35.799Z,11.20
2018-09-08T23:21:04.102Z,11.00
2018-09-08T23:23:33.007Z,11.00
2018-09-08T23:26:10.732Z,10.90
2018-09-08T23:28:39.097Z,10.80
2018-09-08T23:31:07.503Z,10.70
2018-09-08T23:33:35.937Z,10.80
2018-09-08T23:36:04.256Z,10.80
2018-09-08T23:38:32.559Z,10.80
2018-09-08T23:41:02.248Z,10.90
2018-09-08T23:43:30.644Z,10.90
2018-09-08T23:45:58.992Z,10.90
2018-09-08T23:48:27.353Z,11.00
2018-09-08T23:50:55.739Z,11.00
2018-09-08T23:53:24.070Z,11.00
2018-09-08T23:55:52.406Z,11.10
2018-09-08T23:58:20.831Z,11.00
